sensor_id;sensor_type;location;lat;lon;timestamp;temperature;humidity
70321;DHT22;61127;55.826;37.046;2022-07-06T00:02:07;18.74;68.06
70321;DHT22;61127;55.826;37.046;2022-07-06T00:04:33;18.70;67.93
70321;DHT22;61127;55.826;37.046;2022-07-06T00:07:00;18.68;67.88
70321;DHT22;61127;55.826;37.046;2022-07-06T00:09:25;18.62;67.91
70321;DHT22;61127;55.826;37.046;2022-07-06T00:11:53;18.59;68.11
70321;DHT22;61127;55.826;37.046;2022-07-06T00:14:18;18.58;68.12
70321;DHT22;61127;55.826;37.046;2022-07-06T00:16:45;18.54;68.08
70321;DHT22;61127;55.826;37.046;2022-07-06T00:19:11;18.55;68.26
70321;DHT22;61127;55.826;37.046;2022-07-06T00:21:38;18.56;68.20
70321;DHT22;61127;55.826;37.046;2022-07-06T00:24:05;18.57;68.13
70321;DHT22;61127;55.826;37.046;2022-07-06T00:26:31;18.57;68.28
70321;DHT22;61127;55.826;37.046;2022-07-06T00:28:57;18.52;68.39
70321;DHT22;61127;55.826;37.046;2022-07-06T00:31:23;18.52;68.33
70321;DHT22;61127;55.826;37.046;2022-07-06T00:33:50;18.53;68.32
70321;DHT22;61127;55.826;37.046;2022-07-06T00:36:17;18.53;68.26
70321;DHT22;61127;55.826;37.046;2022-07-06T00:38:43;18.55;68.26
70321;DHT22;61127;55.826;37.046;2022-07-06T00:41:09;18.53;68.19
70321;DHT22;61127;55.826;37.046;2022-07-06T00:43:56;18.50;68.75
70321;DHT22;61127;55.826;37.046;2022-07-06T00:46:26;18.52;68.42
70321;DHT22;61127;55.826;37.046;2022-07-06T00:48:53;18.54;68.20
70321;DHT22;61127;55.826;37.046;2022-07-06T00:51:19;18.54;68.27
70321;DHT22;61127;55.826;37.046;2022-07-06T00:53:48;18.52;68.41
70321;DHT22;61127;55.826;37.046;2022-07-06T00:56:15;18.48;68.52
70321;DHT22;61127;55.826;37.046;2022-07-06T00:58:41;18.49;68.50
70321;DHT22;61127;55.826;37.046;2022-07-06T01:01:08;18.48;68.52
70321;DHT22;61127;55.826;37.046;2022-07-06T01:03:34;18.46;68.75
70321;DHT22;61127;55.826;37.046;2022-07-06T01:06:00;18.43;68.93
70321;DHT22;61127;55.826;37.046;2022-07-06T01:08:27;18.40;69.00
70321;DHT22;61127;55.826;37.046;2022-07-06T01:10:54;18.43;68.89
70321;DHT22;61127;55.826;37.046;2022-07-06T01:13:21;18.48;68.89
70321;DHT22;61127;55.826;37.046;2022-07-06T01:15:47;18.46;68.96
70321;DHT22;61127;55.826;37.046;2022-07-06T01:18:14;18.46;68.92
70321;DHT22;61127;55.826;37.046;2022-07-06T01:20:40;18.48;68.94
70321;DHT22;61127;55.826;37.046;2022-07-06T01:23:08;18.52;68.83
70321;DHT22;61127;55.826;37.046;2022-07-06T01:25:34;18.56;68.70
70321;DHT22;61127;55.826;37.046;2022-07-06T01:28:01;18.63;68.62
70321;DHT22;61127;55.826;37.046;2022-07-06T01:30:30;18.67;68.51
70321;DHT22;61127;55.826;37.046;2022-07-06T01:32:56;18.70;68.48
70321;DHT22;61127;55.826;37.046;2022-07-06T01:35:24;18.73;68.45
70321;DHT22;61127;55.826;37.046;2022-07-06T01:37:51;18.77;68.36
70321;DHT22;61127;55.826;37.046;2022-07-06T01:40:18;18.78;68.34
70321;DHT22;61127;55.826;37.046;2022-07-06T01:42:49;18.77;68.51
70321;DHT22;61127;55.826;37.046;2022-07-06T01:45:15;18.76;68.39
70321;DHT22;61127;55.826;37.046;2022-07-06T01:47:41;18.78;68.30
70321;DHT22;61127;55.826;37.046;2022-07-06T01:50:08;18.76;68.36
70321;DHT22;61127;55.826;37.046;2022-07-06T01:52:39;18.76;68.52
70321;DHT22;61127;55.826;37.046;2022-07-06T01:55:06;18.77;68.55
70321;DHT22;61127;55.826;37.046;2022-07-06T01:57:34;18.76;68.58
70321;DHT22;61127;55.826;37.046;2022-07-06T02:00:00;18.77;68.59
70321;DHT22;61127;55.826;37.046;2022-07-06T02:02:30;18.76;68.45
70321;DHT22;61127;55.826;37.046;2022-07-06T02:04:56;18.74;68.53
70321;DHT22;61127;55.826;37.046;2022-07-06T02:07:23;18.74;68.55
70321;DHT22;61127;55.826;37.046;2022-07-06T02:09:48;18.77;68.59
70321;DHT22;61127;55.826;37.046;2022-07-06T02:12:16;18.78;68.55
70321;DHT22;61127;55.826;37.046;2022-07-06T02:14:42;18.79;68.51
70321;DHT22;61127;55.826;37.046;2022-07-06T02:17:08;18.79;68.65
70321;DHT22;61127;55.826;37.046;2022-07-06T02:19:34;18.82;68.78
70321;DHT22;61127;55.826;37.046;2022-07-06T02:22:01;18.93;68.81
70321;DHT22;61127;55.826;37.046;2022-07-06T02:24:27;19.01;68.66
70321;DHT22;61127;55.826;37.046;2022-07-06T02:26:53;19.07;68.49
70321;DHT22;61127;55.826;37.046;2022-07-06T02:29:19;19.13;68.37
70321;DHT22;61127;55.826;37.046;2022-07-06T02:31:46;19.17;68.26
70321;DHT22;61127;55.826;37.046;2022-07-06T02:34:12;19.22;68.13
70321;DHT22;61127;55.826;37.046;2022-07-06T02:36:39;19.30;67.94
70321;DHT22;61127;55.826;37.046;2022-07-06T02:39:04;19.38;67.80
70321;DHT22;61127;55.826;37.046;2022-07-06T02:41:31;19.43;67.75
70321;DHT22;61127;55.826;37.046;2022-07-06T02:43:59;19.47;67.59
70321;DHT22;61127;55.826;37.046;2022-07-06T02:46:25;19.55;67.42
70321;DHT22;61127;55.826;37.046;2022-07-06T02:48:51;19.58;67.36
70321;DHT22;61127;55.826;37.046;2022-07-06T02:51:17;19.60;67.28
70321;DHT22;61127;55.826;37.046;2022-07-06T02:53:43;19.66;67.07
70321;DHT22;61127;55.826;37.046;2022-07-06T02:56:10;19.68;67.01
70321;DHT22;61127;55.826;37.046;2022-07-06T02:58:36;19.73;67.07
70321;DHT22;61127;55.826;37.046;2022-07-06T03:01:02;19.79;67.04
70321;DHT22;61127;55.826;37.046;2022-07-06T03:03:29;19.86;67.04
70321;DHT22;61127;55.826;37.046;2022-07-06T03:05:56;19.97;66.89
70321;DHT22;61127;55.826;37.046;2022-07-06T03:08:23;20.07;66.82
70321;DHT22;61127;55.826;37.046;2022-07-06T03:10:49;20.16;66.78
70321;DHT22;61127;55.826;37.046;2022-07-06T03:13:17;20.26;66.80
70321;DHT22;61127;55.826;37.046;2022-07-06T03:15:44;20.36;66.61
70321;DHT22;61127;55.826;37.046;2022-07-06T03:18:10;20.46;66.33
70321;DHT22;61127;55.826;37.046;2022-07-06T03:20:37;20.54;66.43
70321;DHT22;61127;55.826;37.046;2022-07-06T03:23:07;20.64;66.37
70321;DHT22;61127;55.826;37.046;2022-07-06T03:25:34;20.72;66.24
70321;DHT22;61127;55.826;37.046;2022-07-06T03:28:01;20.84;66.14
70321;DHT22;61127;55.826;37.046;2022-07-06T03:30:27;20.91;66.00
70321;DHT22;61127;55.826;37.046;2022-07-06T03:32:56;21.01;65.88
70321;DHT22;61127;55.826;37.046;2022-07-06T03:35:23;21.10;65.72
70321;DHT22;61127;55.826;37.046;2022-07-06T03:37:51;21.20;65.69
70321;DHT22;61127;55.826;37.046;2022-07-06T03:40:19;21.29;65.70
70321;DHT22;61127;55.826;37.046;2022-07-06T03:42:48;21.38;65.69
70321;DHT22;61127;55.826;37.046;2022-07-06T03:45:15;21.47;65.60
70321;DHT22;61127;55.826;37.046;2022-07-06T03:47:41;21.55;65.43
70321;DHT22;61127;55.826;37.046;2022-07-06T03:50:09;21.62;65.43
70321;DHT22;61127;55.826;37.046;2022-07-06T03:52:36;21.70;65.37
70321;DHT22;61127;55.826;37.046;2022-07-06T03:55:10;21.81;65.66
70321;DHT22;61127;55.826;37.046;2022-07-06T03:57:38;21.91;64.77
70321;DHT22;61127;55.826;37.046;2022-07-06T04:00:09;21.95;64.32
70321;DHT22;61127;55.826;37.046;2022-07-06T04:02:47;22.03;64.18
70321;DHT22;61127;55.826;37.046;2022-07-06T04:05:19;22.11;64.11
70321;DHT22;61127;55.826;37.046;2022-07-06T04:07:47;22.16;64.05
70321;DHT22;61127;55.826;37.046;2022-07-06T04:10:15;22.28;63.86
70321;DHT22;61127;55.826;37.046;2022-07-06T04:12:42;22.42;63.80
70321;DHT22;61127;55.826;37.046;2022-07-06T04:15:09;22.60;63.66
70321;DHT22;61127;55.826;37.046;2022-07-06T04:17:35;22.72;62.79
70321;DHT22;61127;55.826;37.046;2022-07-06T04:20:38;22.87;62.99
70321;DHT22;61127;55.826;37.046;2022-07-06T04:23:08;23.01;62.92
70321;DHT22;61127;55.826;37.046;2022-07-06T04:25:35;23.18;62.52
70321;DHT22;61127;55.826;37.046;2022-07-06T04:28:02;23.34;62.39
70321;DHT22;61127;55.826;37.046;2022-07-06T04:30:30;23.50;62.10
70321;DHT22;61127;55.826;37.046;2022-07-06T04:32:56;23.65;61.60
70321;DHT22;61127;55.826;37.046;2022-07-06T04:35:25;23.73;61.13
70321;DHT22;61127;55.826;37.046;2022-07-06T04:37:53;23.85;61.41
70321;DHT22;61127;55.826;37.046;2022-07-06T04:40:20;24.05;61.21
70321;DHT22;61127;55.826;37.046;2022-07-06T04:42:50;24.28;60.99
70321;DHT22;61127;55.826;37.046;2022-07-06T04:45:16;24.46;60.41
70321;DHT22;61127;55.826;37.046;2022-07-06T04:47:43;24.64;59.85
70321;DHT22;61127;55.826;37.046;2022-07-06T04:50:11;24.69;59.57
70321;DHT22;61127;55.826;37.046;2022-07-06T04:52:39;24.88;59.52
70321;DHT22;61127;55.826;37.046;2022-07-06T04:55:06;25.13;59.09
70321;DHT22;61127;55.826;37.046;2022-07-06T04:57:36;25.38;58.65
70321;DHT22;61127;55.826;37.046;2022-07-06T05:00:04;25.48;57.89
70321;DHT22;61127;55.826;37.046;2022-07-06T05:02:31;25.60;58.07
70321;DHT22;61127;55.826;37.046;2022-07-06T05:04:58;25.78;57.55
70321;DHT22;61127;55.826;37.046;2022-07-06T05:07:24;25.94;57.05
70321;DHT22;61127;55.826;37.046;2022-07-06T05:09:55;26.19;56.58
70321;DHT22;61127;55.826;37.046;2022-07-06T05:12:22;26.39;56.17
70321;DHT22;61127;55.826;37.046;2022-07-06T05:14:48;26.71;55.86
70321;DHT22;61127;55.826;37.046;2022-07-06T05:17:14;26.91;55.69
70321;DHT22;61127;55.826;37.046;2022-07-06T05:19:41;27.16;54.74
70321;DHT22;61127;55.826;37.046;2022-07-06T05:22:09;27.38;54.30
70321;DHT22;61127;55.826;37.046;2022-07-06T05:24:35;27.53;53.75
70321;DHT22;61127;55.826;37.046;2022-07-06T05:27:02;27.64;53.66
70321;DHT22;61127;55.826;37.046;2022-07-06T05:29:29;27.75;53.38
70321;DHT22;61127;55.826;37.046;2022-07-06T05:31:56;27.88;53.39
70321;DHT22;61127;55.826;37.046;2022-07-06T05:34:22;28.04;52.97
70321;DHT22;61127;55.826;37.046;2022-07-06T05:36:48;28.15;53.01
70321;DHT22;61127;55.826;37.046;2022-07-06T05:39:14;28.19;52.62
70321;DHT22;61127;55.826;37.046;2022-07-06T05:41:45;28.18;52.32
70321;DHT22;61127;55.826;37.046;2022-07-06T05:44:12;28.25;51.91
70321;DHT22;61127;55.826;37.046;2022-07-06T05:46:38;28.46;51.79
70321;DHT22;61127;55.826;37.046;2022-07-06T05:49:05;28.63;51.59
70321;DHT22;61127;55.826;37.046;2022-07-06T05:51:51;28.90;51.33
70321;DHT22;61127;55.826;37.046;2022-07-06T05:54:18;28.90;50.23
70321;DHT22;61127;55.826;37.046;2022-07-06T05:56:45;28.78;50.34
70321;DHT22;61127;55.826;37.046;2022-07-06T05:59:12;28.98;50.55
70321;DHT22;61127;55.826;37.046;2022-07-06T06:01:38;29.02;50.04
70321;DHT22;61127;55.826;37.046;2022-07-06T06:04:16;29.13;49.82
70321;DHT22;61127;55.826;37.046;2022-07-06T06:06:42;29.35;49.57
70321;DHT22;61127;55.826;37.046;2022-07-06T06:09:09;29.62;48.46
70321;DHT22;61127;55.826;37.046;2022-07-06T06:11:35;29.70;48.63
70321;DHT22;61127;55.826;37.046;2022-07-06T06:14:03;29.82;48.36
70321;DHT22;61127;55.826;37.046;2022-07-06T06:16:30;29.93;47.74
70321;DHT22;61127;55.826;37.046;2022-07-06T06:18:56;30.10;47.71
70321;DHT22;61127;55.826;37.046;2022-07-06T06:21:22;30.40;47.32
70321;DHT22;61127;55.826;37.046;2022-07-06T06:23:48;30.71;47.19
70321;DHT22;61127;55.826;37.046;2022-07-06T06:26:14;31.12;46.80
70321;DHT22;61127;55.826;37.046;2022-07-06T06:28:40;31.26;46.08
70321;DHT22;61127;55.826;37.046;2022-07-06T06:31:07;31.55;45.25
70321;DHT22;61127;55.826;37.046;2022-07-06T06:33:33;31.81;44.93
70321;DHT22;61127;55.826;37.046;2022-07-06T06:35:59;32.12;44.53
70321;DHT22;61127;55.826;37.046;2022-07-06T06:38:25;32.53;43.80
70321;DHT22;61127;55.826;37.046;2022-07-06T06:40:51;32.92;43.40
70321;DHT22;61127;55.826;37.046;2022-07-06T06:43:19;33.23;42.77
70321;DHT22;61127;55.826;37.046;2022-07-06T06:46:04;33.49;42.17
70321;DHT22;61127;55.826;37.046;2022-07-06T06:48:30;33.11;41.49
70321;DHT22;61127;55.826;37.046;2022-07-06T06:50:57;32.72;41.78
70321;DHT22;61127;55.826;37.046;2022-07-06T06:53:34;32.83;40.91
70321;DHT22;61127;55.826;37.046;2022-07-06T06:56:01;33.07;41.69
70321;DHT22;61127;55.826;37.046;2022-07-06T06:58:27;32.99;41.22
70321;DHT22;61127;55.826;37.046;2022-07-06T07:00:53;32.69;41.29
70321;DHT22;61127;55.826;37.046;2022-07-06T07:03:22;32.62;40.93
70321;DHT22;61127;55.826;37.046;2022-07-06T07:05:47;32.84;41.15
70321;DHT22;61127;55.826;37.046;2022-07-06T07:08:14;33.03;40.68
70321;DHT22;61127;55.826;37.046;2022-07-06T07:10:40;33.04;40.74
70321;DHT22;61127;55.826;37.046;2022-07-06T07:13:08;33.45;40.52
70321;DHT22;61127;55.826;37.046;2022-07-06T07:15:33;33.71;39.88
70321;DHT22;61127;55.826;37.046;2022-07-06T07:18:00;33.94;40.19
70321;DHT22;61127;55.826;37.046;2022-07-06T07:20:26;34.18;39.26
70321;DHT22;61127;55.826;37.046;2022-07-06T07:22:56;34.49;38.86
70321;DHT22;61127;55.826;37.046;2022-07-06T07:25:22;34.64;38.01
70321;DHT22;61127;55.826;37.046;2022-07-06T07:27:48;34.92;37.05
70321;DHT22;61127;55.826;37.046;2022-07-06T07:30:15;35.14;37.17
70321;DHT22;61127;55.826;37.046;2022-07-06T07:32:41;35.80;36.59
70321;DHT22;61127;55.826;37.046;2022-07-06T07:35:07;36.37;36.36
70321;DHT22;61127;55.826;37.046;2022-07-06T07:37:34;36.73;34.86
70321;DHT22;61127;55.826;37.046;2022-07-06T07:40:00;36.95;34.34
70321;DHT22;61127;55.826;37.046;2022-07-06T07:42:30;37.14;34.09
70321;DHT22;61127;55.826;37.046;2022-07-06T07:44:56;37.15;34.37
70321;DHT22;61127;55.826;37.046;2022-07-06T07:47:22;37.51;33.33
70321;DHT22;61127;55.826;37.046;2022-07-06T07:49:48;37.82;32.89
70321;DHT22;61127;55.826;37.046;2022-07-06T07:52:15;37.97;32.67
70321;DHT22;61127;55.826;37.046;2022-07-06T07:54:41;38.06;33.01
70321;DHT22;61127;55.826;37.046;2022-07-06T07:57:08;38.28;32.35
70321;DHT22;61127;55.826;37.046;2022-07-06T07:59:33;38.37;31.57
70321;DHT22;61127;55.826;37.046;2022-07-06T08:02:01;38.73;32.11
70321;DHT22;61127;55.826;37.046;2022-07-06T08:04:27;38.83;31.16
70321;DHT22;61127;55.826;37.046;2022-07-06T08:06:53;39.02;30.77
70321;DHT22;61127;55.826;37.046;2022-07-06T08:09:19;39.22;30.84
70321;DHT22;61127;55.826;37.046;2022-07-06T08:11:45;39.59;30.73
70321;DHT22;61127;55.826;37.046;2022-07-06T08:14:12;39.88;30.09
70321;DHT22;61127;55.826;37.046;2022-07-06T08:16:40;39.65;29.42
70321;DHT22;61127;55.826;37.046;2022-07-06T08:19:06;39.55;30.12
70321;DHT22;61127;55.826;37.046;2022-07-06T08:21:32;39.37;29.71
70321;DHT22;61127;55.826;37.046;2022-07-06T08:23:58;39.11;29.99
70321;DHT22;61127;55.826;37.046;2022-07-06T08:26:26;38.99;29.74
70321;DHT22;61127;55.826;37.046;2022-07-06T08:28:52;39.39;29.05
70321;DHT22;61127;55.826;37.046;2022-07-06T08:31:19;40.02;29.53
70321;DHT22;61127;55.826;37.046;2022-07-06T08:33:45;40.84;28.72
70321;DHT22;61127;55.826;37.046;2022-07-06T08:36:11;41.17;28.30
70321;DHT22;61127;55.826;37.046;2022-07-06T08:38:37;41.76;28.45
70321;DHT22;61127;55.826;37.046;2022-07-06T08:41:05;42.25;27.12
70321;DHT22;61127;55.826;37.046;2022-07-06T08:43:34;42.50;25.41
70321;DHT22;61127;55.826;37.046;2022-07-06T08:46:01;42.88;26.26
70321;DHT22;61127;55.826;37.046;2022-07-06T08:48:27;42.47;26.60
70321;DHT22;61127;55.826;37.046;2022-07-06T08:50:58;42.53;26.64
70321;DHT22;61127;55.826;37.046;2022-07-06T08:53:24;42.96;26.32
70321;DHT22;61127;55.826;37.046;2022-07-06T08:55:51;43.39;25.71
70321;DHT22;61127;55.826;37.046;2022-07-06T08:58:17;43.80;25.63
70321;DHT22;61127;55.826;37.046;2022-07-06T09:00:47;43.24;25.30
70321;DHT22;61127;55.826;37.046;2022-07-06T09:03:13;43.93;25.22
70321;DHT22;61127;55.826;37.046;2022-07-06T09:05:40;44.12;24.84
70321;DHT22;61127;55.826;37.046;2022-07-06T09:08:06;44.58;24.12
70321;DHT22;61127;55.826;37.046;2022-07-06T09:10:32;44.45;24.10
70321;DHT22;61127;55.826;37.046;2022-07-06T09:13:06;45.01;23.11
70321;DHT22;61127;55.826;37.046;2022-07-06T09:15:34;44.30;22.58
70321;DHT22;61127;55.826;37.046;2022-07-06T09:18:01;43.06;23.41
70321;DHT22;61127;55.826;37.046;2022-07-06T09:20:29;41.39;24.01
70321;DHT22;61127;55.826;37.046;2022-07-06T09:22:59;39.92;24.14
70321;DHT22;61127;55.826;37.046;2022-07-06T09:25:27;39.39;27.46
70321;DHT22;61127;55.826;37.046;2022-07-06T09:27:53;39.89;26.35
70321;DHT22;61127;55.826;37.046;2022-07-06T09:30:23;40.73;25.23
70321;DHT22;61127;55.826;37.046;2022-07-06T09:32:51;40.78;24.85
70321;DHT22;61127;55.826;37.046;2022-07-06T09:35:26;41.11;24.76
70321;DHT22;61127;55.826;37.046;2022-07-06T09:38:19;42.35;23.79
70321;DHT22;61127;55.826;37.046;2022-07-06T09:40:46;42.40;23.22
70321;DHT22;61127;55.826;37.046;2022-07-06T09:43:20;41.73;22.55
70321;DHT22;61127;55.826;37.046;2022-07-06T09:45:53;40.55;23.75
70321;DHT22;61127;55.826;37.046;2022-07-06T09:48:21;39.47;24.98
70321;DHT22;61127;55.826;37.046;2022-07-06T09:50:50;38.38;25.58
70321;DHT22;61127;55.826;37.046;2022-07-06T09:53:17;37.34;26.56
70321;DHT22;61127;55.826;37.046;2022-07-06T09:55:47;36.73;27.37
70321;DHT22;61127;55.826;37.046;2022-07-06T09:58:17;36.41;28.52
70321;DHT22;61127;55.826;37.046;2022-07-06T10:00:45;36.15;28.81
70321;DHT22;61127;55.826;37.046;2022-07-06T10:03:13;35.64;29.01
70321;DHT22;61127;55.826;37.046;2022-07-06T10:05:42;35.03;29.63
70321;DHT22;61127;55.826;37.046;2022-07-06T10:08:09;34.82;30.28
70321;DHT22;61127;55.826;37.046;2022-07-06T10:10:37;35.79;30.45
70321;DHT22;61127;55.826;37.046;2022-07-06T10:13:06;38.08;28.77
70321;DHT22;61127;55.826;37.046;2022-07-06T10:15:36;39.74;27.32
70321;DHT22;61127;55.826;37.046;2022-07-06T10:18:05;40.59;26.52
70321;DHT22;61127;55.826;37.046;2022-07-06T10:20:33;41.41;25.59
70321;DHT22;61127;55.826;37.046;2022-07-06T10:23:03;41.93;25.24
70321;DHT22;61127;55.826;37.046;2022-07-06T10:25:29;43.00;23.84
70321;DHT22;61127;55.826;37.046;2022-07-06T10:27:57;43.61;23.01
70321;DHT22;61127;55.826;37.046;2022-07-06T10:30:24;44.73;22.27
70321;DHT22;61127;55.826;37.046;2022-07-06T10:32:52;45.76;21.13
70321;DHT22;61127;55.826;37.046;2022-07-06T10:35:20;47.28;20.83
70321;DHT22;61127;55.826;37.046;2022-07-06T10:38:04;48.95;17.52
70321;DHT22;61127;55.826;37.046;2022-07-06T10:40:38;49.84;17.24
70321;DHT22;61127;55.826;37.046;2022-07-06T10:43:51;50.67;17.15
70321;DHT22;61127;55.826;37.046;2022-07-06T10:46:18;51.07;17.16
70321;DHT22;61127;55.826;37.046;2022-07-06T10:48:48;0.00;0.00
70321;DHT22;61127;55.826;37.046;2022-07-06T10:51:25;0.00;0.00
70321;DHT22;61127;55.826;37.046;2022-07-06T10:54:00;0.00;0.00
70321;DHT22;61127;55.826;37.046;2022-07-06T10:56:33;0.00;0.00
70321;DHT22;61127;55.826;37.046;2022-07-06T10:59:03;0.00;0.00
70321;DHT22;61127;55.826;37.046;2022-07-06T11:01:34;0.00;0.00
70321;DHT22;61127;55.826;37.046;2022-07-06T11:06:32;0.00;0.00
70321;DHT22;61127;55.826;37.046;2022-07-06T11:09:00;0.00;0.00
70321;DHT22;61127;55.826;37.046;2022-07-06T11:16:59;49.17;15.73
70321;DHT22;61127;55.826;37.046;2022-07-06T11:19:27;48.03;15.69
70321;DHT22;61127;55.826;37.046;2022-07-06T11:24:27;46.73;16.22
70321;DHT22;61127;55.826;37.046;2022-07-06T11:26:54;46.67;16.03
70321;DHT22;61127;55.826;37.046;2022-07-06T11:29:21;45.72;16.42
70321;DHT22;61127;55.826;37.046;2022-07-06T11:31:52;44.95;16.99
70321;DHT22;61127;55.826;37.046;2022-07-06T11:34:33;45.65;16.84
70321;DHT22;61127;55.826;37.046;2022-07-06T11:37:05;44.14;16.48
70321;DHT22;61127;55.826;37.046;2022-07-06T11:39:32;42.60;17.93
70321;DHT22;61127;55.826;37.046;2022-07-06T11:42:00;41.45;18.75
70321;DHT22;61127;55.826;37.046;2022-07-06T11:44:26;40.46;19.52
70321;DHT22;61127;55.826;37.046;2022-07-06T11:46:53;39.70;20.49
70321;DHT22;61127;55.826;37.046;2022-07-06T11:49:22;38.96;20.76
70321;DHT22;61127;55.826;37.046;2022-07-06T11:51:49;38.25;21.48
70321;DHT22;61127;55.826;37.046;2022-07-06T11:54:18;37.77;22.05
70321;DHT22;61127;55.826;37.046;2022-07-06T11:56:56;37.99;22.37
70321;DHT22;61127;55.826;37.046;2022-07-06T11:59:29;38.07;22.53
70321;DHT22;61127;55.826;37.046;2022-07-06T12:02:02;38.02;22.86
70321;DHT22;61127;55.826;37.046;2022-07-06T12:04:29;37.84;23.39
70321;DHT22;61127;55.826;37.046;2022-07-06T12:07:00;37.45;23.86
70321;DHT22;61127;55.826;37.046;2022-07-06T12:09:29;36.83;24.32
70321;DHT22;61127;55.826;37.046;2022-07-06T12:11:56;36.31;24.88
70321;DHT22;61127;55.826;37.046;2022-07-06T12:14:22;36.21;24.87
70321;DHT22;61127;55.826;37.046;2022-07-06T12:16:49;36.06;25.12
70321;DHT22;61127;55.826;37.046;2022-07-06T12:19:16;35.95;25.65
70321;DHT22;61127;55.826;37.046;2022-07-06T12:21:50;36.26;25.93
70321;DHT22;61127;55.826;37.046;2022-07-06T12:24:28;37.25;25.44
70321;DHT22;61127;55.826;37.046;2022-07-06T12:26:56;40.73;23.58
70321;DHT22;61127;55.826;37.046;2022-07-06T12:29:22;43.67;21.44
70321;DHT22;61127;55.826;37.046;2022-07-06T12:31:54;45.68;19.44
70321;DHT22;61127;55.826;37.046;2022-07-06T12:34:26;46.97;17.33
70321;DHT22;61127;55.826;37.046;2022-07-06T12:36:57;45.80;17.19
70321;DHT22;61127;55.826;37.046;2022-07-06T12:39:26;47.95;17.96
70321;DHT22;61127;55.826;37.046;2022-07-06T12:42:00;47.51;16.15
70321;DHT22;61127;55.826;37.046;2022-07-06T12:44:28;46.20;18.67
70321;DHT22;61127;55.826;37.046;2022-07-06T12:47:08;47.57;15.96
70321;DHT22;61127;55.826;37.046;2022-07-06T12:49:37;48.09;14.03
70321;DHT22;61127;55.826;37.046;2022-07-06T12:54:51;44.98;17.28
70321;DHT22;61127;55.826;37.046;2022-07-06T12:57:22;47.29;16.03
70321;DHT22;61127;55.826;37.046;2022-07-06T13:02:30;44.91;15.55
70321;DHT22;61127;55.826;37.046;2022-07-06T13:05:00;46.05;16.96
70321;DHT22;61127;55.826;37.046;2022-07-06T13:07:30;47.33;15.96
70321;DHT22;61127;55.826;37.046;2022-07-06T13:10:08;47.75;13.51
70321;DHT22;61127;55.826;37.046;2022-07-06T13:12:35;46.68;15.75
70321;DHT22;61127;55.826;37.046;2022-07-06T13:15:01;46.23;15.38
70321;DHT22;61127;55.826;37.046;2022-07-06T13:17:29;45.83;15.60
70321;DHT22;61127;55.826;37.046;2022-07-06T13:20:14;44.47;15.70
70321;DHT22;61127;55.826;37.046;2022-07-06T13:22:42;42.30;17.22
70321;DHT22;61127;55.826;37.046;2022-07-06T13:25:08;44.17;18.01
70321;DHT22;61127;55.826;37.046;2022-07-06T13:27:36;46.59;16.23
70321;DHT22;61127;55.826;37.046;2022-07-06T13:30:03;47.49;14.67
70321;DHT22;61127;55.826;37.046;2022-07-06T13:32:30;47.06;13.97
70321;DHT22;61127;55.826;37.046;2022-07-06T13:34:56;45.85;14.51
70321;DHT22;61127;55.826;37.046;2022-07-06T13:37:22;45.94;14.41
70321;DHT22;61127;55.826;37.046;2022-07-06T13:39:48;46.10;13.95
70321;DHT22;61127;55.826;37.046;2022-07-06T13:42:14;44.97;14.00
70321;DHT22;61127;55.826;37.046;2022-07-06T13:44:40;43.92;14.62
70321;DHT22;61127;55.826;37.046;2022-07-06T13:47:06;42.22;15.39
70321;DHT22;61127;55.826;37.046;2022-07-06T13:49:33;40.63;16.47
70321;DHT22;61127;55.826;37.046;2022-07-06T13:52:01;39.15;17.80
70321;DHT22;61127;55.826;37.046;2022-07-06T13:54:31;37.67;18.71
70321;DHT22;61127;55.826;37.046;2022-07-06T13:56:58;36.72;19.53
70321;DHT22;61127;55.826;37.046;2022-07-06T13:59:24;36.09;20.48
70321;DHT22;61127;55.826;37.046;2022-07-06T14:01:51;35.87;21.02
70321;DHT22;61127;55.826;37.046;2022-07-06T14:04:18;36.32;21.38
70321;DHT22;61127;55.826;37.046;2022-07-06T14:06:44;36.85;21.05
70321;DHT22;61127;55.826;37.046;2022-07-06T14:09:10;36.77;21.44
70321;DHT22;61127;55.826;37.046;2022-07-06T14:11:36;36.48;21.73
70321;DHT22;61127;55.826;37.046;2022-07-06T14:14:04;36.14;22.69
70321;DHT22;61127;55.826;37.046;2022-07-06T14:16:34;35.88;22.44
70321;DHT22;61127;55.826;37.046;2022-07-06T14:19:00;35.62;23.21
70321;DHT22;61127;55.826;37.046;2022-07-06T14:21:26;35.41;23.03
70321;DHT22;61127;55.826;37.046;2022-07-06T14:23:53;35.20;23.52
70321;DHT22;61127;55.826;37.046;2022-07-06T14:26:20;35.13;24.30
70321;DHT22;61127;55.826;37.046;2022-07-06T14:28:45;35.01;24.40
70321;DHT22;61127;55.826;37.046;2022-07-06T14:31:12;34.83;24.37
70321;DHT22;61127;55.826;37.046;2022-07-06T14:33:39;34.62;24.89
70321;DHT22;61127;55.826;37.046;2022-07-06T14:36:05;34.50;25.31
70321;DHT22;61127;55.826;37.046;2022-07-06T14:38:31;34.34;25.01
70321;DHT22;61127;55.826;37.046;2022-07-06T14:40:57;34.11;25.23
70321;DHT22;61127;55.826;37.046;2022-07-06T14:43:24;33.92;25.58
70321;DHT22;61127;55.826;37.046;2022-07-06T14:45:50;33.89;25.81
70321;DHT22;61127;55.826;37.046;2022-07-06T14:48:16;33.75;25.96
70321;DHT22;61127;55.826;37.046;2022-07-06T14:50:43;33.63;25.90
70321;DHT22;61127;55.826;37.046;2022-07-06T14:53:09;33.52;25.72
70321;DHT22;61127;55.826;37.046;2022-07-06T14:55:35;33.40;26.11
70321;DHT22;61127;55.826;37.046;2022-07-06T14:58:01;33.20;25.91
70321;DHT22;61127;55.826;37.046;2022-07-06T15:00:27;33.15;25.99
70321;DHT22;61127;55.826;37.046;2022-07-06T15:02:54;33.13;26.10
70321;DHT22;61127;55.826;37.046;2022-07-06T15:05:21;33.06;26.23
70321;DHT22;61127;55.826;37.046;2022-07-06T15:07:46;32.98;26.06
70321;DHT22;61127;55.826;37.046;2022-07-06T15:10:13;32.77;26.28
70321;DHT22;61127;55.826;37.046;2022-07-06T15:12:39;32.75;26.62
70321;DHT22;61127;55.826;37.046;2022-07-06T15:15:05;32.69;26.86
70321;DHT22;61127;55.826;37.046;2022-07-06T15:17:31;32.61;27.36
70321;DHT22;61127;55.826;37.046;2022-07-06T15:19:59;32.52;27.43
70321;DHT22;61127;55.826;37.046;2022-07-06T15:22:27;32.35;28.02
70321;DHT22;61127;55.826;37.046;2022-07-06T15:24:54;32.29;27.53
70321;DHT22;61127;55.826;37.046;2022-07-06T15:27:20;32.28;27.82
70321;DHT22;61127;55.826;37.046;2022-07-06T15:29:46;32.24;27.74
70321;DHT22;61127;55.826;37.046;2022-07-06T15:32:12;32.19;28.23
70321;DHT22;61127;55.826;37.046;2022-07-06T15:34:38;32.16;28.62
70321;DHT22;61127;55.826;37.046;2022-07-06T15:37:04;32.13;28.92
70321;DHT22;61127;55.826;37.046;2022-07-06T15:39:31;32.04;28.35